Lake Elsinore, California
Current Conditions -  °F | °C
As of 2:55 PM on Wednesday 26 Nov 2014 (Local Time) from KF70 Reporting Station
Clear Clear  
Wind Chill: 86°   Ceiling: Unl
Heat Index: 86°   Visibility: 10mi
Dew Point: 19°   Wind: 0mph
Humidity: 9%   Direction: NA
Pressure: 30.16"   Gusts: NA
Location:  33.67°N, 117.32°W
Report Text: KF70 262255Z AUTO 00000KT 10SM CLR 30/M07 A3016 RMK AO1
Loading
Personal Weather Stations






























Interactive Weather Map New forecast layout! Learn more

10-Day Weather Forecast

Advertisements
Track Severe Weather on mobile